Aurora, Indiana
Current Conditions -  °F | °C
As of 8:52 AM on Thursday 18 Dec 2014 (Local Time) from KCVG Reporting Station
Overcast Overcast  
Wind Chill: -3°   Ceiling: 2200
Heat Index: -3°   Visibility: 9mi
Dew Point: -8°   Wind: 3mph
Humidity: 69%   Direction: 220°SW
Pressure: 30.29"   Gusts: NA
Location:  39.06°N, 84.9°W
Report Text: KCVG 181352Z 22003KT 9SM SCT017 OVC022 M03/M08 A3029 RMK AO2 SLP264 T10281078
Loading
Personal Weather Stations






























Interactive Weather Map New forecast layout! Learn more

10-Day Weather Forecast

Advertisements
Track Severe Weather on mobile